createdAt,value
2019-04-05T00:00:58.532Z,59.32
2019-04-05T02:16:05.746Z,64.09
2019-04-05T03:15:50.722Z,63.57
2019-04-05T03:30:52.375Z,63.31
2019-04-05T03:45:50.573Z,63.06
2019-04-05T04:00:54.194Z,62.96
2019-04-05T04:15:51.349Z,62.95
2019-04-05T04:30:56.370Z,60.29
2019-04-05T04:45:52.478Z,53.83
2019-04-05T05:00:50.265Z,48.95
2019-04-05T05:15:51.114Z,46.61
2019-04-05T05:30:52.546Z,44.16
2019-04-05T05:45:51.484Z,46.25
2019-04-05T06:00:57.301Z,50.09
2019-04-05T06:15:51.319Z,48.93
2019-04-05T06:30:54.177Z,45.57
2019-04-05T06:45:51.806Z,45.81
2019-04-05T07:00:58.576Z,44.18
2019-04-05T07:15:54.942Z,43.92
2019-04-05T07:30:51.392Z,46.17
2019-04-05T07:45:50.713Z,44.99
2019-04-05T08:00:53.699Z,48.05
2019-04-05T08:15:56.648Z,49.37
2019-04-05T08:30:52.523Z,49.44
2019-04-05T08:45:50.878Z,47.22
2019-04-05T09:00:53.914Z,47.20
2019-04-05T09:15:50.796Z,47.91
2019-04-05T09:30:51.936Z,48.22
2019-04-05T09:45:52.206Z,47.84
2019-04-05T10:01:00.027Z,48.22
2019-04-05T10:15:51.853Z,48.64
2019-04-05T10:30:52.087Z,49.15
2019-04-05T10:45:51.128Z,47.97
2019-04-05T11:00:57.318Z,46.93
2019-04-05T11:15:58.186Z,46.24
2019-04-05T11:30:51.029Z,46.46
2019-04-05T11:45:57.941Z,46.99
2019-04-05T12:00:55.996Z,46.87
2019-04-05T12:15:51.678Z,45.85
2019-04-05T12:30:51.772Z,45.56
2019-04-05T12:45:50.744Z,45.06
2019-04-05T13:00:56.976Z,45.08
2019-04-05T13:15:50.600Z,44.58
2019-04-05T13:30:51.563Z,44.23
2019-04-05T13:45:52.276Z,44.40
2019-04-05T14:00:53.885Z,44.15
2019-04-05T14:15:50.715Z,43.91
2019-04-05T14:30:50.815Z,43.09
2019-04-05T14:45:52.582Z,42.63
2019-04-05T15:15:50.897Z,42.51
2019-04-05T15:30:50.811Z,42.44
2019-04-05T15:45:51.227Z,41.65
2019-04-05T16:00:54.328Z,42.39
2019-04-05T16:15:50.362Z,42.31
2019-04-05T16:30:50.363Z,42.75
2019-04-05T16:45:51.260Z,43.27
2019-04-05T17:15:53.877Z,47.90
2019-04-05T17:30:54.859Z,49.59
2019-04-05T17:45:54.275Z,50.86
2019-04-05T18:15:53.706Z,52.88
2019-04-05T18:30:52.687Z,53.21
2019-04-05T18:45:56.493Z,53.38
2019-04-05T19:00:53.961Z,53.21
2019-04-05T19:15:54.003Z,53.70
2019-04-05T20:00:52.201Z,55.45
2019-04-05T20:15:57.121Z,54.93
2019-04-05T20:30:54.055Z,54.46
2019-04-05T20:45:54.159Z,55.10
2019-04-05T21:00:51.450Z,56.25
2019-04-05T21:15:51.620Z,55.60
2019-04-05T21:30:50.681Z,54.62
2019-04-05T21:45:50.494Z,54.79
2019-04-05T22:15:50.407Z,56.26
2019-04-05T22:30:50.450Z,57.73
2019-04-05T23:00:50.211Z,58.94
2019-04-05T23:15:52.609Z,59.84
2019-04-05T23:30:50.585Z,60.17
2019-04-05T23:45:52.180Z,60.74
